Time;durP1;ratioP1;P1;durP2;ratioP2;P2;SDS_P1;SDS_P2;PMS_P1;PMS_P2;Temp;Humidity;BMP_temperature;BMP_pressure;BME280_temperature;BME280_humidity;BME280_pressure;Samples;Min_cycle;Max_cycle;Signal;HPM_P1;HPM_P2
2022/12/15 00:40:38;;;;;;;;;;;-5.50;99.90;;;;;;5029542;28;20415;-60
2022/12/15 00:43:04;;;;;;;;;;;-5.60;99.90;;;;;;5030346;28;20007;-58
2022/12/15 00:48:13;;;;;;;;;;;-5.60;99.90;;;;;;5031589;28;19927;-60
2022/12/15 00:50:53;;;;;;;;;;;-5.50;99.90;;;;;;5036325;28;20370;-61
2022/12/15 01:20:41;;;;;;;;;;;-5.80;99.90;;;;;;5029632;28;19923;-61
2022/12/15 01:23:06;;;;;;;;;;;-5.70;99.90;;;;;;5033665;28;19938;-60
2022/12/15 01:25:31;;;;;;;;;;;-5.60;99.90;;;;;;5027475;28;19921;-60
2022/12/15 01:27:57;;;;;;;;;;;-5.40;99.90;;;;;;5028845;28;20454;-58
2022/12/15 01:30:23;;;;;;;;;;;-5.50;99.90;;;;;;5028571;28;19927;-61
2022/12/15 01:32:49;;;;;;;;;;;-5.60;99.90;;;;;;5029664;28;19913;-61
2022/12/15 01:35:14;;;;;;;;;;;-5.80;99.90;;;;;;5032560;28;19921;-59
2022/12/15 01:37:40;;;;;;;;;;;-5.80;99.90;;;;;;5033744;28;19920;-61
2022/12/15 01:42:51;;;;;;;;;;;-5.90;99.90;;;;;;5035197;28;20441;-60
2022/12/15 01:45:22;;;;;;;;;;;-5.90;99.90;;;;;;5032670;28;19913;-58
2022/12/15 01:47:51;;;;;;;;;;;-5.90;99.90;;;;;;5034154;28;19917;-58
2022/12/15 01:50:17;;;;;;;;;;;-5.90;99.90;;;;;;5035430;28;19913;-61
2022/12/15 01:52:42;;;;;;;;;;;-5.90;99.90;;;;;;5033432;28;19913;-58
2022/12/15 01:55:09;;;;;;;;;;;-6.00;99.90;;;;;;5038596;28;19928;-60
2022/12/15 01:57:35;;;;;;;;;;;-6.10;99.90;;;;;;5032617;28;19972;-59
2022/12/15 02:00:03;;;;;;;;;;;-5.90;99.90;;;;;;5028344;28;20020;-60
2022/12/15 02:02:29;;;;;;;;;;;-5.80;99.90;;;;;;5027447;28;19917;-59
2022/12/15 02:04:56;;;;;;;;;;;-5.90;99.90;;;;;;5037663;28;19913;-61
2022/12/15 02:07:22;;;;;;;;;;;-5.80;99.90;;;;;;5034476;28;20398;-61
2022/12/15 02:09:48;;;;;;;;;;;-5.90;99.90;;;;;;5029032;28;19932;-60
2022/12/15 02:12:20;;;;;;;;;;;-6.00;99.90;;;;;;5032083;28;19917;-61
2022/12/15 02:14:45;;;;;;;;;;;-6.00;99.90;;;;;;5029821;28;19914;-60
2022/12/15 02:17:11;;;;;;;;;;;-6.10;99.90;;;;;;5032283;28;19919;-57
2022/12/15 02:20:01;;;;;;;;;;;-6.20;99.90;;;;;;5035414;28;20051;-60
2022/12/15 02:22:37;;;;;;;;;;;-6.30;99.90;;;;;;5025956;28;19909;-60
2022/12/15 02:25:06;;;;;;;;;;;-6.30;99.90;;;;;;5031450;28;19913;-60
2022/12/15 02:27:48;;;;;;;;;;;-6.30;99.90;;;;;;5029272;28;19917;-60
2022/12/15 02:30:13;;;;;;;;;;;-6.20;99.90;;;;;;5035284;28;19931;-60
2022/12/15 02:32:57;;;;;;;;;;;-6.20;99.90;;;;;;5032860;28;20366;-61
2022/12/15 02:35:30;;;;;;;;;;;-6.20;99.90;;;;;;5033447;28;19913;-60
2022/12/15 02:37:56;;;;;;;;;;;-6.30;99.90;;;;;;5033007;28;19913;-59
2022/12/15 02:40:21;;;;;;;;;;;-6.50;99.90;;;;;;5032459;28;20954;-57
2022/12/15 02:42:50;;;;;;;;;;;-6.50;99.90;;;;;;5038467;28;19924;-60
2022/12/15 02:45:18;;;;;;;;;;;-6.50;99.90;;;;;;5020103;28;19917;-60
2022/12/15 02:47:56;;;;;;;;;;;-6.40;99.90;;;;;;5031158;28;19932;-59
2022/12/15 02:50:37;;;;;;;;;;;-6.40;99.90;;;;;;5021898;28;19939;-60
2022/12/15 02:53:30;;;;;;;;;;;-6.40;99.90;;;;;;5039850;28;19913;-60
2022/12/15 02:56:08;;;;;;;;;;;-6.50;99.90;;;;;;5014773;28;19920;-60
2022/12/15 02:58:41;;;;;;;;;;;-6.50;99.90;;;;;;5035574;28;20047;-60
2022/12/15 03:01:29;;;;;;;;;;;-6.50;99.90;;;;;;5028053;28;19978;-61
2022/12/15 03:03:54;;;;;;;;;;;-6.60;99.90;;;;;;5032302;28;19917;-60
2022/12/15 03:06:20;;;;;;;;;;;-6.70;99.90;;;;;;5031246;28;19916;-61
2022/12/15 03:08:46;;;;;;;;;;;-6.50;99.90;;;;;;5033857;28;19914;-60
2022/12/15 03:11:11;;;;;;;;;;;-6.50;99.90;;;;;;5033772;28;20370;-60
2022/12/15 03:13:37;;;;;;;;;;;-6.40;99.90;;;;;;5030856;28;19913;-61
2022/12/15 03:16:02;;;;;;;;;;;-6.30;99.90;;;;;;5032222;28;20018;-60
2022/12/15 03:18:27;;;;;;;;;;;-6.30;99.90;;;;;;5030943;28;19987;-61
2022/12/15 03:20:53;;;;;;;;;;;-6.30;99.90;;;;;;5038644;28;19922;-61
2022/12/15 03:23:18;;;;;;;;;;;-6.30;99.90;;;;;;5035494;28;20485;-60
2022/12/15 03:25:45;;;;;;;;;;;-6.30;99.90;;;;;;5028661;28;20325;-61
2022/12/15 03:28:10;;;;;;;;;;;-6.50;99.90;;;;;;5027432;28;20314;-60
2022/12/15 03:30:36;;;;;;;;;;;-6.60;99.90;;;;;;5032027;28;19919;-61
2022/12/15 03:33:01;;;;;;;;;;;-6.60;99.90;;;;;;5032416;28;20394;-59
2022/12/15 03:35:27;;;;;;;;;;;-6.50;99.90;;;;;;5032106;28;19913;-60
2022/12/15 03:37:52;;;;;;;;;;;-6.60;99.90;;;;;;5020683;28;20437;-60
2022/12/15 03:40:18;;;;;;;;;;;-6.60;99.90;;;;;;5035174;28;19913;-61
2022/12/15 03:42:49;;;;;;;;;;;-6.70;99.90;;;;;;5032823;28;19948;-61
2022/12/15 03:45:16;;;;;;;;;;;-6.70;99.90;;;;;;5027510;28;19913;-61
2022/12/15 03:47:42;;;;;;;;;;;-6.90;99.90;;;;;;5034187;28;19947;-60
2022/12/15 03:50:08;;;;;;;;;;;-6.90;99.90;;;;;;5039058;28;20370;-60
2022/12/15 03:52:34;;;;;;;;;;;-6.80;99.90;;;;;;5035498;28;20409;-61
2022/12/15 03:55:00;;;;;;;;;;;-6.80;99.90;;;;;;5034555;28;19979;-59
2022/12/15 03:57:26;;;;;;;;;;;-6.80;99.90;;;;;;5034208;28;20371;-61
2022/12/15 03:59:51;;;;;;;;;;;-6.90;99.90;;;;;;5034093;28;19920;-60
2022/12/15 04:02:17;;;;;;;;;;;-6.80;99.90;;;;;;5032948;28;19979;-60
2022/12/15 04:04:42;;;;;;;;;;;-6.90;99.90;;;;;;5038032;28;20417;-60
2022/12/15 04:07:08;;;;;;;;;;;-6.80;99.90;;;;;;5036077;28;19924;-60
2022/12/15 04:09:34;;;;;;;;;;;-6.90;99.90;;;;;;5039460;28;19917;-61
2022/12/15 04:12:02;;;;;;;;;;;-6.80;99.90;;;;;;5034812;28;20051;-60
2022/12/15 04:14:30;;;;;;;;;;;-6.60;99.90;;;;;;5040145;28;20302;-60
2022/12/15 04:16:56;;;;;;;;;;;-6.80;99.90;;;;;;5036465;28;19913;-60
2022/12/15 04:22:05;;;;;;;;;;;-6.70;99.90;;;;;;5034679;28;20320;-59
2022/12/15 05:32:55;;;;;;;;;;;-7.00;99.90;;;;;;5051774;28;19924;-66
2022/12/15 05:35:21;;;;;;;;;;;-7.10;99.90;;;;;;5048893;28;19913;-67
2022/12/15 05:37:46;;;;;;;;;;;-7.10;99.90;;;;;;5053593;28;20355;-67
2022/12/15 05:40:12;;;;;;;;;;;-7.10;99.90;;;;;;5052536;28;19916;-67
2022/12/15 05:42:37;;;;;;;;;;;-7.10;99.90;;;;;;5048370;28;20451;-69
2022/12/15 05:45:04;;;;;;;;;;;-7.10;99.90;;;;;;5042501;28;20440;-68
2022/12/15 05:47:29;;;;;;;;;;;-7.10;99.90;;;;;;5058767;28;19952;-68
2022/12/15 05:49:55;;;;;;;;;;;-6.90;99.90;;;;;;5047986;28;19975;-68
2022/12/15 05:52:21;;;;;;;;;;;-6.80;99.90;;;;;;5043863;28;20325;-67
2022/12/15 05:54:46;;;;;;;;;;;-6.80;99.90;;;;;;5044829;28;20404;-68
2022/12/15 05:57:11;;;;;;;;;;;-6.90;99.90;;;;;;5043575;28;19948;-69
2022/12/15 05:59:37;;;;;;;;;;;-6.90;99.90;;;;;;5043439;28;19917;-68
2022/12/15 06:02:02;;;;;;;;;;;-6.90;99.90;;;;;;5046780;28;19967;-68
2022/12/15 06:04:28;;;;;;;;;;;-6.80;99.90;;;;;;5047654;28;20267;-68
2022/12/15 06:06:53;;;;;;;;;;;-6.80;99.90;;;;;;5055958;28;20011;-68
2022/12/15 06:09:19;;;;;;;;;;;-6.60;99.90;;;;;;5047547;28;19909;-69
2022/12/15 06:11:44;;;;;;;;;;;-6.50;99.90;;;;;;5043304;28;19920;-67
2022/12/15 06:14:10;;;;;;;;;;;-6.40;99.90;;;;;;5045421;28;20361;-69
2022/12/15 06:16:35;;;;;;;;;;;-6.40;99.90;;;;;;5045180;28;19917;-69
2022/12/15 06:19:01;;;;;;;;;;;-6.40;99.90;;;;;;5047719;28;19956;-68
2022/12/15 06:21:28;;;;;;;;;;;-6.20;99.90;;;;;;5049120;28;19952;-68
2022/12/15 06:23:54;;;;;;;;;;;-6.20;99.90;;;;;;5049762;28;19912;-67
2022/12/15 06:26:21;;;;;;;;;;;-6.10;99.90;;;;;;5041517;28;19935;-68
2022/12/15 06:28:47;;;;;;;;;;;-6.00;99.90;;;;;;5047756;28;19920;-67
2022/12/15 06:31:13;;;;;;;;;;;-5.90;99.90;;;;;;5048363;28;19921;-68
2022/12/15 06:33:39;;;;;;;;;;;-6.00;99.90;;;;;;5045307;28;19913;-67
2022/12/15 06:36:05;;;;;;;;;;;;;;;;;;5050353;28;19905;-68
2022/12/15 06:38:30;;;;;;;;;;;;;;;;;;5048858;28;19913;-70
2022/12/15 06:40:56;;;;;;;;;;;;;;;;;;5051188;28;19958;-68
2022/12/15 06:43:22;;;;;;;;;;;;;;;;;;5049172;28;19912;-68
2022/12/15 06:45:48;;;;;;;;;;;;;;;;;;5048902;28;19908;-68
2022/12/15 06:48:14;;;;;;;;;;;;;;;;;;5049425;28;19931;-68
2022/12/15 06:50:40;;;;;;;;;;;;;;;;;;5049446;28;19908;-68
2022/12/15 06:53:06;;;;;;;;;;;;;;;;;;5047669;28;19913;-68
2022/12/15 06:55:32;;;;;;;;;;;;;;;;;;5049329;28;19923;-68
2022/12/15 06:57:58;;;;;;;;;;;;;;;;;;5050438;28;19905;-68
2022/12/15 07:00:23;;;;;;;;;;;;;;;;;;5048580;28;20481;-68
2022/12/15 07:02:49;;;;;;;;;;;;;;;;;;5051465;28;19904;-68
2022/12/15 07:05:15;;;;;;;;;;;;;;;;;;5050492;28;19998;-68
2022/12/15 07:07:41;;;;;;;;;;;;;;;;;;5044430;28;20323;-68
2022/12/15 07:10:07;;;;;;;;;;;-6.00;99.90;;;;;;5047907;28;19913;-68
2022/12/15 07:12:32;;;;;;;;;;;-5.80;99.90;;;;;;5050308;28;19911;-68
2022/12/15 07:14:58;;;;;;;;;;;-5.60;99.90;;;;;;5050619;28;19905;-67
2022/12/15 07:17:23;;;;;;;;;;;-5.50;99.90;;;;;;5047787;28;19909;-68
2022/12/15 07:19:49;;;;;;;;;;;-5.50;99.90;;;;;;5050485;28;19948;-68
2022/12/15 07:22:14;;;;;;;;;;;-5.50;99.90;;;;;;5049852;28;19920;-66
2022/12/15 07:24:40;;;;;;;;;;;-5.40;99.90;;;;;;5051170;28;20017;-68
2022/12/15 07:27:05;;;;;;;;;;;-5.40;99.90;;;;;;5051418;28;19966;-69
2022/12/15 07:29:31;;;;;;;;;;;-5.40;99.90;;;;;;5050347;28;19919;-68
2022/12/15 07:31:57;;;;;;;;;;;-5.30;99.90;;;;;;5048906;28;20369;-68
2022/12/15 07:34:22;;;;;;;;;;;-5.20;99.90;;;;;;5049155;28;19911;-69
2022/12/15 07:36:48;;;;;;;;;;;-5.20;99.90;;;;;;5055605;28;19905;-69
2022/12/15 07:39:14;;;;;;;;;;;-5.30;99.90;;;;;;5064912;28;19912;-69
2022/12/15 07:41:40;;;;;;;;;;;-5.30;99.90;;;;;;5053222;28;19927;-68
2022/12/15 07:44:06;;;;;;;;;;;-5.20;99.90;;;;;;5050432;28;19995;-68
2022/12/15 07:46:32;;;;;;;;;;;-5.20;99.90;;;;;;5050982;28;19909;-68
2022/12/15 07:48:57;;;;;;;;;;;-5.10;99.90;;;;;;5052424;28;19996;-68
2022/12/15 07:51:23;;;;;;;;;;;-5.00;99.90;;;;;;5049875;28;19995;-68
2022/12/15 07:53:49;;;;;;;;;;;-4.80;99.90;;;;;;5048758;28;19909;-68
2022/12/15 07:56:14;;;;;;;;;;;-4.80;99.90;;;;;;5051210;28;19909;-68
2022/12/15 07:58:40;;;;;;;;;;;-4.80;99.90;;;;;;5050604;28;20366;-67
2022/12/15 08:01:06;;;;;;;;;;;-4.70;99.90;;;;;;5051014;28;20100;-67
2022/12/15 08:03:32;;;;;;;;;;;-4.70;99.90;;;;;;5050872;28;20095;-67
2022/12/15 08:05:57;;;;;;;;;;;-4.70;99.90;;;;;;5051140;28;19904;-66
2022/12/15 08:08:23;;;;;;;;;;;-4.70;99.90;;;;;;5049540;28;19932;-67
2022/12/15 08:10:48;;;;;;;;;;;-4.60;99.90;;;;;;5049869;28;19958;-66
2022/12/15 08:13:14;;;;;;;;;;;-4.50;99.90;;;;;;5050278;28;19905;-67
2022/12/15 08:15:40;;;;;;;;;;;-4.50;99.90;;;;;;5050119;28;19905;-66
2022/12/15 08:18:06;;;;;;;;;;;-4.40;99.90;;;;;;5049659;28;20264;-68
2022/12/15 08:20:32;;;;;;;;;;;-4.30;99.90;;;;;;5050295;28;19912;-69
2022/12/15 08:22:57;;;;;;;;;;;-4.30;99.90;;;;;;5049227;28;20290;-71
2022/12/15 08:25:23;;;;;;;;;;;-4.30;99.90;;;;;;5051514;28;19912;-66
2022/12/15 08:27:49;;;;;;;;;;;-4.30;99.90;;;;;;5052628;28;19916;-66
2022/12/15 08:30:15;;;;;;;;;;;-4.20;99.90;;;;;;5053554;28;20367;-68
2022/12/15 08:32:40;;;;;;;;;;;-4.20;99.90;;;;;;5050471;28;19912;-69
2022/12/15 08:35:06;;;;;;;;;;;-4.20;99.90;;;;;;5054153;28;19905;-68
2022/12/15 08:37:33;;;;;;;;;;;-4.20;99.90;;;;;;5048687;28;20039;-69
2022/12/15 08:39:58;;;;;;;;;;;-4.10;99.90;;;;;;5052716;28;19909;-68
2022/12/15 08:42:24;;;;;;;;;;;-4.10;99.90;;;;;;5053252;28;19905;-67
2022/12/15 08:44:50;;;;;;;;;;;-4.00;99.90;;;;;;5053406;28;19947;-68
2022/12/15 08:47:15;;;;;;;;;;;-4.00;99.90;;;;;;5048461;28;20408;-68
2022/12/15 08:49:41;;;;;;;;;;;-3.80;99.90;;;;;;5050486;28;19927;-68
2022/12/15 08:52:06;;;;;;;;;;;-3.70;99.90;;;;;;5051990;28;19927;-68
2022/12/15 08:54:32;;;;;;;;;;;-3.70;99.90;;;;;;5048516;28;19913;-67
2022/12/15 08:56:57;;;;;;;;;;;-3.70;99.90;;;;;;5044767;28;19915;-69
2022/12/15 08:59:25;;;;;;;;;;;-3.60;99.90;;;;;;5043877;28;19921;-68
2022/12/15 09:01:52;;;;;;;;;;;-3.60;99.90;;;;;;5049500;28;19909;-68
2022/12/15 09:04:17;;;;;;;;;;;-3.50;99.90;;;;;;5045715;28;19911;-68
2022/12/15 09:06:43;;;;;;;;;;;-3.50;99.90;;;;;;5050291;28;19909;-68
2022/12/15 09:09:10;;;;;;;;;;;-3.50;99.90;;;;;;5048291;28;20817;-68
2022/12/15 09:11:35;;;;;;;;;;;-3.40;99.90;;;;;;5050034;28;19959;-69
2022/12/15 09:14:02;;;;;;;;;;;-3.20;99.90;;;;;;5049399;28;19909;-69
2022/12/15 09:16:27;;;;;;;;;;;-3.20;99.90;;;;;;5049762;28;19967;-67
2022/12/15 09:18:54;;;;;;;;;;;-3.20;99.90;;;;;;5051461;28;19955;-66
2022/12/15 09:21:24;;;;;;;;;;;-3.20;99.90;;;;;;5053061;28;19909;-68
2022/12/15 09:23:50;;;;;;;;;;;-3.00;99.90;;;;;;5056923;28;19928;-67
2022/12/15 09:26:16;;;;;;;;;;;-3.00;99.90;;;;;;5051271;28;19909;-68
2022/12/15 09:28:42;;;;;;;;;;;-3.00;99.90;;;;;;5051909;28;19916;-69
2022/12/15 09:31:11;;;;;;;;;;;-3.10;99.90;;;;;;5049264;28;19967;-68
2022/12/15 09:33:37;;;;;;;;;;;-2.90;99.90;;;;;;5048316;28;20389;-68
2022/12/15 09:36:03;;;;;;;;;;;-2.90;99.90;;;;;;5050623;28;19953;-68
2022/12/15 09:38:29;;;;;;;;;;;-2.90;99.90;;;;;;5054676;28;19928;-69
2022/12/15 09:40:55;;;;;;;;;;;-2.80;99.90;;;;;;5050207;28;19908;-69
2022/12/15 09:43:22;;;;;;;;;;;-2.90;99.90;;;;;;5049516;28;19909;-67
2022/12/15 09:45:51;;;;;;;;;;;-2.90;99.90;;;;;;5048029;28;20358;-67
2022/12/15 09:48:18;;;;;;;;;;;-2.90;99.90;;;;;;5048529;28;19913;-67
2022/12/15 09:50:45;;;;;;;;;;;-2.80;99.90;;;;;;5050919;28;19932;-67
2022/12/15 09:53:12;;;;;;;;;;;-2.80;99.90;;;;;;5049298;28;19997;-68
2022/12/15 09:55:38;;;;;;;;;;;-2.80;99.90;;;;;;5050899;28;19999;-68
2022/12/15 09:58:16;;;;;;;;;;;-2.80;99.90;;;;;;5051233;28;19996;-67
2022/12/15 10:00:47;;;;;;;;;;;-2.80;99.90;;;;;;5044694;28;19916;-69
2022/12/15 10:03:21;;;;;;;;;;;-2.90;99.90;;;;;;5049950;28;20016;-68
2022/12/15 10:05:53;;;;;;;;;;;-2.80;99.90;;;;;;5051088;28;19916;-68
2022/12/15 10:08:19;;;;;;;;;;;-2.80;99.90;;;;;;5047838;28;20046;-69
2022/12/15 10:10:50;;;;;;;;;;;-2.90;99.90;;;;;;5050759;28;20364;-68
2022/12/15 10:13:22;;;;;;;;;;;-2.80;99.90;;;;;;5047533;28;19935;-69
2022/12/15 10:15:59;;;;;;;;;;;-2.80;99.90;;;;;;5045903;28;19932;-68
2022/12/15 10:18:29;;;;;;;;;;;-2.70;99.90;;;;;;5049282;28;19999;-68
2022/12/15 10:20:55;;;;;;;;;;;-2.80;99.90;;;;;;5050685;28;20278;-68
2022/12/15 10:23:21;;;;;;;;;;;-2.60;99.90;;;;;;5048348;28;19908;-69
2022/12/15 10:25:57;;;;;;;;;;;-2.70;99.90;;;;;;5050991;28;20381;-69
2022/12/15 10:28:47;;;;;;;;;;;-2.80;99.90;;;;;;5049313;28;19912;-68
2022/12/15 10:31:24;;;;;;;;;;;-2.70;99.90;;;;;;5055721;28;19916;-67
2022/12/15 10:33:53;;;;;;;;;;;-2.70;99.90;;;;;;5057313;28;19928;-68
2022/12/15 10:36:20;;;;;;;;;;;-2.70;99.90;;;;;;5052140;28;19904;-68
2022/12/15 10:38:46;;;;;;;;;;;-2.60;99.90;;;;;;5051418;28;20309;-69
2022/12/15 10:41:17;;;;;;;;;;;-2.40;99.90;;;;;;5049210;28;19908;-66
2022/12/15 10:43:45;;;;;;;;;;;-2.50;99.90;;;;;;5046015;28;19909;-67
2022/12/15 10:46:18;;;;;;;;;;;-2.50;99.90;;;;;;5050490;28;20362;-67
2022/12/15 10:48:47;;;;;;;;;;;-2.60;99.90;;;;;;5043243;28;20374;-68
2022/12/15 10:51:13;;;;;;;;;;;-2.30;99.90;;;;;;5046036;28;19928;-67
2022/12/15 10:53:40;;;;;;;;;;;-2.50;99.90;;;;;;5034223;28;19916;-68
2022/12/15 10:56:07;;;;;;;;;;;-2.40;99.90;;;;;;5046010;28;19923;-68
2022/12/15 10:58:44;;;;;;;;;;;-2.30;99.90;;;;;;5047508;28;19915;-70
2022/12/15 11:01:15;;;;;;;;;;;-2.50;99.90;;;;;;5047097;28;19972;-69
2022/12/15 11:03:40;;;;;;;;;;;-2.40;99.90;;;;;;5051301;28;19909;-68
2022/12/15 11:06:13;;;;;;;;;;;-2.40;99.90;;;;;;5041312;28;19909;-68
2022/12/15 11:08:40;;;;;;;;;;;-2.30;99.90;;;;;;5050057;28;20269;-68
2022/12/15 11:14:11;;;;;;;;;;;-2.30;99.90;;;;;;5043319;28;19927;-69
2022/12/15 11:16:42;;;;;;;;;;;-2.30;99.90;;;;;;5043205;28;20355;-68
2022/12/15 11:19:13;;;;;;;;;;;-2.20;99.90;;;;;;5079084;22;19932;-57
2022/12/15 11:21:43;;;;;;;;;;;-2.30;99.90;;;;;;5080432;28;19908;-57
2022/12/15 11:24:08;;;;;;;;;;;-2.20;99.90;;;;;;5086051;28;19911;-59
2022/12/15 11:26:37;;;;;;;;;;;-2.30;99.90;;;;;;5086178;28;19908;-60
2022/12/15 11:29:12;;;;;;;;;;;-2.10;99.90;;;;;;5078878;28;19920;-60
2022/12/15 11:31:40;;;;;;;;;;;-2.20;99.90;;;;;;5068705;28;19912;-59
2022/12/15 11:34:31;;;;;;;;;;;-2.20;99.90;;;;;;5073228;28;19920;-60
2022/12/15 11:37:00;;;;;;;;;;;-2.10;99.90;;;;;;5070657;28;19908;-60
2022/12/15 11:39:25;;;;;;;;;;;-2.10;99.90;;;;;;5071044;28;19912;-60
2022/12/15 11:41:54;;;;;;;;;;;-2.10;99.90;;;;;;5072001;28;19983;-60
2022/12/15 11:44:37;;;;;;;;;;;-2.10;99.90;;;;;;5066920;28;19908;-60
2022/12/15 11:47:21;;;;;;;;;;;-2.20;99.90;;;;;;5075533;28;19977;-59
2022/12/15 11:50:02;;;;;;;;;;;-2.20;99.90;;;;;;5073318;28;19915;-58
2022/12/15 11:52:45;;;;;;;;;;;-2.10;99.90;;;;;;5075591;28;19991;-59
2022/12/15 11:55:29;;;;;;;;;;;-2.00;99.90;;;;;;5076388;28;20302;-61
2022/12/15 11:57:55;;;;;;;;;;;-1.80;99.90;;;;;;5074693;28;19913;-56
2022/12/15 12:00:21;;;;;;;;;;;-1.90;99.90;;;;;;5075415;28;19915;-58
2022/12/15 12:03:05;;;;;;;;;;;-1.80;99.90;;;;;;5069807;28;19920;-58
2022/12/15 12:05:43;;;;;;;;;;;-1.70;99.90;;;;;;5068048;28;19923;-60
2022/12/15 12:08:26;;;;;;;;;;;-1.60;99.90;;;;;;5079513;28;20269;-59
2022/12/15 12:10:52;;;;;;;;;;;-1.70;99.90;;;;;;5070435;28;19917;-57
2022/12/15 12:13:36;;;;;;;;;;;-1.50;99.90;;;;;;5075339;28;19908;-56
2022/12/15 12:16:21;;;;;;;;;;;-1.80;99.90;;;;;;5075482;28;19953;-58
2022/12/15 12:18:51;;;;;;;;;;;-1.70;99.90;;;;;;5077576;28;20392;-58
2022/12/15 12:21:23;;;;;;;;;;;-1.60;99.90;;;;;;5072831;28;19912;-56
2022/12/15 12:23:52;;;;;;;;;;;-1.40;99.90;;;;;;5073646;28;20431;-58
2022/12/15 12:26:36;;;;;;;;;;;-1.40;99.90;;;;;;5069011;28;19927;-57
2022/12/15 12:29:15;;;;;;;;;;;-1.30;99.90;;;;;;5068855;28;19921;-59
2022/12/15 12:31:47;;;;;;;;;;;-0.90;99.90;;;;;;5068962;28;19927;-58
2022/12/15 12:34:16;;;;;;;;;;;-1.30;99.90;;;;;;5077466;28;19931;-58
2022/12/15 12:36:42;;;;;;;;;;;-1.30;99.90;;;;;;5066069;28;19924;-59
2022/12/15 12:39:13;;;;;;;;;;;-1.20;99.90;;;;;;5069900;28;19912;-59
2022/12/15 12:41:43;;;;;;;;;;;-1.10;99.90;;;;;;5070760;28;19919;-59
2022/12/15 12:44:29;;;;;;;;;;;-1.10;99.90;;;;;;5045627;28;19920;-59
2022/12/15 12:46:56;;;;;;;;;;;-0.80;99.90;;;;;;5069566;28;20464;-57
2022/12/15 12:49:21;;;;;;;;;;;-0.50;99.90;;;;;;5078533;28;19912;-60
2022/12/15 12:51:53;;;;;;;;;;;-0.50;99.90;;;;;;5073673;28;20473;-59
2022/12/15 12:54:31;;;;;;;;;;;-0.60;99.90;;;;;;5055257;28;20293;-59
2022/12/15 12:56:57;;;;;;;;;;;-0.70;99.90;;;;;;5069911;28;20303;-59
2022/12/15 12:59:28;;;;;;;;;;;-0.50;99.90;;;;;;5070113;28;20006;-57
2022/12/15 13:01:55;;;;;;;;;;;-0.40;99.90;;;;;;5044986;28;20592;-57
2022/12/15 13:04:29;;;;;;;;;;;-0.60;99.90;;;;;;5072810;28;19955;-58
2022/12/15 13:06:59;;;;;;;;;;;-0.90;99.90;;;;;;5070761;28;19920;-60
2022/12/15 13:09:42;;;;;;;;;;;-0.90;99.90;;;;;;5063505;28;19909;-58
2022/12/15 13:12:26;;;;;;;;;;;-0.90;99.90;;;;;;5062554;28;20369;-59
2022/12/15 13:14:53;;;;;;;;;;;-0.60;99.90;;;;;;5072308;28;19962;-58
2022/12/15 13:17:24;;;;;;;;;;;-0.70;99.90;;;;;;5065691;28;19975;-55
2022/12/15 13:19:59;;;;;;;;;;;-0.40;99.90;;;;;;5068486;28;19928;-59
2022/12/15 13:22:35;;;;;;;;;;;-0.20;99.90;;;;;;5061587;28;19923;-59
2022/12/15 13:25:01;;;;;;;;;;;-0.40;99.90;;;;;;5062606;28;19921;-56
2022/12/15 13:27:37;;;;;;;;;;;-0.70;99.90;;;;;;5071086;28;19923;-59
2022/12/15 13:30:13;;;;;;;;;;;-0.50;99.90;;;;;;5074618;28;19964;-58
2022/12/15 13:32:40;;;;;;;;;;;-0.40;99.90;;;;;;5059420;28;19917;-58
2022/12/15 13:35:12;;;;;;;;;;;-0.40;99.90;;;;;;5065756;28;19916;-56
2022/12/15 13:37:49;;;;;;;;;;;-0.60;99.90;;;;;;5072371;28;19919;-58
2022/12/15 13:40:23;;;;;;;;;;;-0.50;99.90;;;;;;5066988;28;20329;-58
2022/12/15 13:43:15;;;;;;;;;;;-0.50;99.90;;;;;;5074674;28;19924;-59
2022/12/15 13:45:44;;;;;;;;;;;-0.80;99.90;;;;;;5036104;28;19916;-59
2022/12/15 13:48:17;;;;;;;;;;;-0.80;99.90;;;;;;5066132;28;20442;-58
2022/12/15 13:50:56;;;;;;;;;;;-0.60;99.90;;;;;;5071353;28;20008;-60
2022/12/15 13:53:22;;;;;;;;;;;-0.60;99.90;;;;;;5068840;28;19912;-59
2022/12/15 13:56:00;;;;;;;;;;;-0.60;99.90;;;;;;5067075;28;19916;-58
2022/12/15 13:58:26;;;;;;;;;;;-0.50;99.90;;;;;;5067617;28;20404;-57
2022/12/15 14:00:53;;;;;;;;;;;-0.40;99.90;;;;;;5076928;28;19944;-59
2022/12/15 14:03:19;;;;;;;;;;;-0.50;99.90;;;;;;5065571;28;19912;-59
2022/12/15 14:05:54;;;;;;;;;;;-0.70;99.90;;;;;;5074179;28;19916;-59
2022/12/15 14:08:21;;;;;;;;;;;-0.70;99.90;;;;;;5067554;28;20011;-57
2022/12/15 14:10:50;;;;;;;;;;;-0.80;99.90;;;;;;5071729;28;19920;-55
2022/12/15 14:13:23;;;;;;;;;;;-0.90;99.90;;;;;;5071895;28;19966;-55
2022/12/15 14:15:58;;;;;;;;;;;-0.80;99.90;;;;;;5070479;28;19912;-57
2022/12/15 14:18:25;;;;;;;;;;;-0.80;99.90;;;;;;5070279;28;19920;-59
2022/12/15 14:20:51;;;;;;;;;;;-0.80;99.90;;;;;;5071485;28;19928;-57
2022/12/15 14:23:20;;;;;;;;;;;-0.90;99.90;;;;;;5065620;28;19916;-58
2022/12/15 14:25:52;;;;;;;;;;;-0.90;99.90;;;;;;5066995;28;19913;-58
2022/12/15 14:28:26;;;;;;;;;;;-1.30;99.90;;;;;;5069903;28;20015;-55
2022/12/15 14:30:52;;;;;;;;;;;-1.30;99.90;;;;;;5069625;28;19916;-57
2022/12/15 14:33:19;;;;;;;;;;;-1.30;99.90;;;;;;5071019;28;20276;-58
2022/12/15 14:35:49;;;;;;;;;;;-1.30;99.90;;;;;;5070629;28;20016;-58
2022/12/15 14:38:17;;;;;;;;;;;-1.20;99.90;;;;;;5047461;28;20002;-59
2022/12/15 14:40:43;;;;;;;;;;;-1.30;99.90;;;;;;5069856;28;19923;-57
2022/12/15 14:43:25;;;;;;;;;;;-1.50;99.90;;;;;;5070929;28;19920;-59
2022/12/15 14:45:53;;;;;;;;;;;-1.50;99.90;;;;;;5063179;28;19912;-58
2022/12/15 14:48:23;;;;;;;;;;;-1.50;99.90;;;;;;5071175;28;19916;-56
2022/12/15 14:50:49;;;;;;;;;;;-1.50;99.90;;;;;;5063345;28;19916;-58
2022/12/15 14:53:16;;;;;;;;;;;-1.60;99.90;;;;;;5066653;28;20561;-58
2022/12/15 14:55:42;;;;;;;;;;;-1.70;99.90;;;;;;5067354;28;19948;-58
2022/12/15 14:58:23;;;;;;;;;;;-1.60;99.90;;;;;;5067108;28;20028;-58
2022/12/15 15:00:50;;;;;;;;;;;-1.70;99.90;;;;;;5075909;28;19967;-58
2022/12/15 15:03:18;;;;;;;;;;;-1.70;99.90;;;;;;5075560;28;19917;-60
2022/12/15 15:05:56;;;;;;;;;;;-1.90;99.90;;;;;;5065235;28;20271;-59
2022/12/15 15:08:29;;;;;;;;;;;-1.90;99.90;;;;;;5070751;28;20286;-56
2022/12/15 15:10:56;;;;;;;;;;;-2.00;99.90;;;;;;5060970;28;19919;-61
2022/12/15 15:13:23;;;;;;;;;;;-2.10;99.90;;;;;;5061572;28;19921;-60
2022/12/15 15:15:59;;;;;;;;;;;-2.30;99.90;;;;;;5061041;28;20027;-57
2022/12/15 15:18:26;;;;;;;;;;;-2.40;99.90;;;;;;5066659;28;19939;-60
2022/12/15 15:20:55;;;;;;;;;;;-2.50;99.90;;;;;;5065674;28;19929;-61
2022/12/15 15:23:21;;;;;;;;;;;-2.50;99.90;;;;;;5069773;28;19950;-61
2022/12/15 15:25:51;;;;;;;;;;;-2.40;99.90;;;;;;5069388;28;19917;-61
2022/12/15 15:28:16;;;;;;;;;;;-2.60;99.90;;;;;;5063216;28;20479;-59
2022/12/15 15:30:46;;;;;;;;;;;-2.70;99.90;;;;;;5044861;28;19938;-59
2022/12/15 15:33:12;;;;;;;;;;;-2.70;99.90;;;;;;5065447;28;19928;-60
2022/12/15 15:35:38;;;;;;;;;;;-2.80;99.90;;;;;;5065958;28;19917;-64
2022/12/15 15:38:15;;;;;;;;;;;-2.90;99.90;;;;;;5067966;28;19974;-65
2022/12/15 15:40:41;;;;;;;;;;;-2.80;99.90;;;;;;5063434;28;19924;-65
2022/12/15 15:43:10;;;;;;;;;;;-2.90;99.90;;;;;;5064812;28;20293;-65
2022/12/15 15:45:35;;;;;;;;;;;-2.90;99.90;;;;;;5068910;28;19916;-63
2022/12/15 15:48:02;;;;;;;;;;;-2.90;99.90;;;;;;5070092;28;20463;-63
2022/12/15 15:50:28;;;;;;;;;;;-2.90;99.90;;;;;;5065070;28;19920;-64
2022/12/15 15:52:54;;;;;;;;;;;-3.00;99.90;;;;;;5070696;28;19995;-63
2022/12/15 15:55:23;;;;;;;;;;;-3.00;99.90;;;;;;5063106;28;20790;-64
2022/12/15 15:57:49;;;;;;;;;;;-3.00;99.90;;;;;;5071835;28;19920;-63
2022/12/15 16:00:24;;;;;;;;;;;-3.00;99.90;;;;;;5070173;28;19920;-63
2022/12/15 16:02:50;;;;;;;;;;;-3.10;99.90;;;;;;5055303;28;19917;-64
2022/12/15 16:05:15;;;;;;;;;;;-3.00;99.90;;;;;;5060528;28;20292;-64
2022/12/15 16:07:41;;;;;;;;;;;-3.10;99.90;;;;;;5046289;28;19959;-64
2022/12/15 16:10:13;;;;;;;;;;;-3.10;99.90;;;;;;5072225;28;19916;-64
2022/12/15 16:12:41;;;;;;;;;;;-3.10;99.90;;;;;;5061168;28;20038;-64
2022/12/15 16:15:12;;;;;;;;;;;-3.20;99.90;;;;;;5069550;28;19954;-65
2022/12/15 16:17:38;;;;;;;;;;;-3.20;99.90;;;;;;5063207;28;19912;-65
2022/12/15 16:20:03;;;;;;;;;;;-3.30;99.90;;;;;;5069298;28;20400;-64
2022/12/15 16:22:29;;;;;;;;;;;-3.30;99.90;;;;;;5061551;28;19920;-65
2022/12/15 16:24:55;;;;;;;;;;;-3.30;99.90;;;;;;5063017;28;19974;-64
2022/12/15 16:27:21;;;;;;;;;;;-3.40;99.90;;;;;;5047128;28;20054;-61
2022/12/15 16:29:46;;;;;;;;;;;-3.30;99.90;;;;;;5048042;28;19921;-61
2022/12/15 16:32:12;;;;;;;;;;;-3.30;99.90;;;;;;5058373;28;20015;-61
2022/12/15 16:34:37;;;;;;;;;;;-3.30;99.90;;;;;;5027277;28;19916;-61
2022/12/15 16:37:03;;;;;;;;;;;-3.50;99.90;;;;;;5059817;28;19920;-65
2022/12/15 16:39:32;;;;;;;;;;;-3.60;99.90;;;;;;5063201;28;19916;-64
2022/12/15 16:41:58;;;;;;;;;;;-3.70;99.90;;;;;;5060951;28;19986;-64
2022/12/15 16:44:24;;;;;;;;;;;-3.70;99.90;;;;;;5064950;28;19993;-66
2022/12/15 16:46:50;;;;;;;;;;;-3.80;99.90;;;;;;5064588;28;19916;-65
2022/12/15 16:49:15;;;;;;;;;;;-3.90;99.90;;;;;;5065213;28;19920;-65
2022/12/15 16:51:42;;;;;;;;;;;-3.90;99.90;;;;;;5060713;28;19972;-63
2022/12/15 16:54:13;;;;;;;;;;;-3.90;99.90;;;;;;5063358;28;19921;-64
2022/12/15 16:56:38;;;;;;;;;;;-3.90;99.90;;;;;;5073010;28;19912;-66